Time;durP1;ratioP1;P1;durP2;ratioP2;P2;SDS_P1;SDS_P2;PMS_P1;PMS_P2;Temp;Humidity;BMP_temperature;BMP_pressure;BME280_temperature;BME280_humidity;BME280_pressure;Samples;Min_cycle;Max_cycle;Signal;HPM_P1;HPM_P2
2023/07/30 00:02:21;;;;;;;2.20;1.80;;;;;;;18.15;89.89;96134.09;108303;1272;22614;-76
2023/07/30 00:04:52;;;;;;;3.00;2.00;;;;;;;18.17;89.75;96138.00;108322;1279;25478;-77
2023/07/30 00:07:23;;;;;;;2.70;2.10;;;;;;;18.20;89.70;96138.14;108330;1272;22488;-77
2023/07/30 00:09:57;;;;;;;2.50;2.10;;;;;;;18.21;89.65;96135.27;108297;1279;25406;-77
2023/07/30 00:12:31;;;;;;;4.90;2.80;;;;;;;18.20;89.65;96130.80;108340;1258;22672;-77
2023/07/30 00:15:05;;;;;;;3.00;2.10;;;;;;;18.18;89.57;96132.81;108303;1279;22526;-76
2023/07/30 00:17:36;;;;;;;2.70;2.00;;;;;;;18.15;89.45;96128.03;108313;1272;25468;-76
2023/07/30 00:20:09;;;;;;;3.80;2.20;;;;;;;18.12;89.46;96132.47;108352;1279;25287;-77
2023/07/30 00:22:42;;;;;;;2.20;1.90;;;;;;;18.11;89.51;96136.50;108297;1271;22526;-77
2023/07/30 00:25:13;;;;;;;2.80;2.20;;;;;;;18.09;89.50;96132.92;108274;1272;22517;-76
2023/07/30 00:27:44;;;;;;;2.00;1.80;;;;;;;18.07;89.49;96128.26;108295;1276;25395;-76
2023/07/30 00:30:16;;;;;;;3.80;2.30;;;;;;;18.03;89.43;96125.95;108380;1279;22514;-77
2023/07/30 00:32:49;;;;;;;3.10;2.20;;;;;;;17.99;89.45;96125.47;108325;1279;25595;-77
2023/07/30 00:35:20;;;;;;;4.00;2.00;;;;;;;17.96;89.43;96120.42;108324;1279;22532;-77
2023/07/30 00:37:54;;;;;;;4.90;2.30;;;;;;;17.95;89.50;96118.08;108299;1274;25307;-77
2023/07/30 00:40:27;;;;;;;2.30;2.00;;;;;;;17.94;89.52;96115.45;108296;1279;22527;-77
2023/07/30 00:43:02;;;;;;;3.50;2.20;;;;;;;17.91;89.46;96111.54;108317;1272;22546;-77
2023/07/30 00:45:34;;;;;;;4.80;2.30;;;;;;;17.86;89.44;96114.66;108267;1272;24629;-77
2023/07/30 00:48:06;;;;;;;3.30;2.20;;;;;;;17.82;89.50;96116.86;108334;1271;22738;-77
2023/07/30 00:50:37;;;;;;;2.50;1.90;;;;;;;17.78;89.57;96117.97;108307;1271;25132;-77
2023/07/30 00:53:10;;;;;;;3.10;2.20;;;;;;;17.73;89.65;96112.82;108367;1275;22578;-76
2023/07/30 00:55:41;;;;;;;5.00;2.00;;;;;;;17.71;89.75;96117.80;108292;1279;23898;-77
2023/07/30 00:58:13;;;;;;;1.70;1.50;;;;;;;17.70;89.93;96125.98;108336;1271;24197;-76
2023/07/30 01:00:45;;;;;;;2.70;1.60;;;;;;;17.71;89.94;96123.70;108349;1262;22572;-77
2023/07/30 01:03:16;;;;;;;2.70;1.80;;;;;;;17.70;89.83;96117.84;108317;1279;22539;-77
2023/07/30 01:05:48;;;;;;;3.00;2.00;;;;;;;17.66;89.85;96112.11;108304;1272;22701;-77
2023/07/30 01:08:19;;;;;;;3.30;1.80;;;;;;;17.63;89.92;96114.86;108332;1271;22548;-77
2023/07/30 01:10:51;;;;;;;2.70;2.20;;;;;;;17.58;89.89;96121.58;108306;1272;22522;-77
2023/07/30 01:13:23;;;;;;;3.00;2.10;;;;;;;17.54;90.13;96119.60;108327;1272;24219;-76
2023/07/30 01:16:03;;;;;;;2.60;2.30;;;;;;;17.50;90.37;96124.25;108300;1278;22541;-77
2023/07/30 01:18:34;;;;;;;2.50;2.30;;;;;;;17.46;90.60;96128.28;108329;1273;23921;-77
2023/07/30 01:21:05;;;;;;;2.60;1.80;;;;;;;17.45;90.80;96126.89;108336;1275;22531;-77
2023/07/30 01:23:36;;;;;;;3.10;2.10;;;;;;;17.46;91.07;96123.30;108365;1277;22527;-76
2023/07/30 01:26:13;;;;;;;2.90;2.00;;;;;;;17.52;91.29;96119.85;108301;1272;25720;-77
2023/07/30 01:28:49;;;;;;;3.80;1.80;;;;;;;17.55;91.42;96122.92;108313;1279;24160;-77
2023/07/30 01:31:21;;;;;;;3.10;2.20;;;;;;;17.58;91.35;96125.09;108292;1272;22535;-77
2023/07/30 01:33:56;;;;;;;3.00;2.10;;;;;;;17.60;91.36;96116.38;108332;1272;24398;-76
2023/07/30 01:36:31;;;;;;;2.50;1.90;;;;;;;17.62;91.29;96118.88;108325;1279;22626;-77
2023/07/30 01:39:02;;;;;;;3.00;2.20;;;;;;;17.60;91.19;96118.52;108431;1279;25505;-77
2023/07/30 01:41:33;;;;;;;2.90;1.80;;;;;;;17.60;91.31;96109.14;108415;1271;25430;-76
2023/07/30 01:44:07;;;;;;;4.80;1.90;;;;;;;17.61;91.20;96106.60;108350;1279;22528;-77
2023/07/30 01:46:38;;;;;;;2.00;1.60;;;;;;;17.61;91.14;96104.67;108371;1272;22553;-77
2023/07/30 01:49:12;;;;;;;6.60;2.00;;;;;;;17.62;91.15;96110.08;108350;1279;22518;-76
2023/07/30 01:51:43;;;;;;;4.00;1.80;;;;;;;17.64;91.03;96114.52;108287;1267;22527;-76
2023/07/30 01:54:14;;;;;;;1.90;1.70;;;;;;;17.67;90.91;96115.96;108322;1279;22517;-76
2023/07/30 01:56:45;;;;;;;1.60;1.50;;;;;;;17.69;90.88;96123.12;108312;1256;23410;-76
2023/07/30 01:59:16;;;;;;;1.90;1.60;;;;;;;17.70;90.73;96114.79;108307;1279;22514;-77
2023/07/30 02:01:47;;;;;;;2.30;1.80;;;;;;;17.71;90.79;96109.98;108308;1272;22520;-76
2023/07/30 02:04:18;;;;;;;2.50;1.90;;;;;;;17.71;90.67;96114.45;108360;1276;22526;-77
2023/07/30 02:06:49;;;;;;;2.20;1.90;;;;;;;17.71;90.60;96114.98;108313;1279;23830;-77
2023/07/30 02:09:22;;;;;;;2.00;1.80;;;;;;;17.68;90.48;96114.87;108330;1279;24298;-76
2023/07/30 02:11:56;;;;;;;2.30;1.90;;;;;;;17.62;90.60;96122.79;108334;1279;22544;-77
2023/07/30 02:14:30;;;;;;;3.10;1.70;;;;;;;17.60;90.67;96129.91;108361;1279;22603;-77
2023/07/30 02:17:04;;;;;;;2.80;1.70;;;;;;;17.56;90.77;96127.42;108338;1279;22524;-77
2023/07/30 02:19:35;;;;;;;4.00;2.10;;;;;;;17.55;90.86;96122.17;108365;1279;22525;-77
2023/07/30 02:22:07;;;;;;;4.90;1.80;;;;;;;17.56;91.05;96122.44;108325;1272;22546;-77
2023/07/30 02:24:38;;;;;;;2.10;1.90;;;;;;;17.60;91.18;96116.21;108334;1279;22520;-77
2023/07/30 02:27:11;;;;;;;3.60;1.40;;;;;;;17.67;91.34;96118.14;108320;1279;26602;-77
2023/07/30 02:29:43;;;;;;;3.20;1.60;;;;;;;17.75;91.21;96122.14;108305;1272;25441;-77
2023/07/30 02:32:14;;;;;;;3.60;1.80;;;;;;;17.79;91.15;96123.13;108309;1272;22535;-77
2023/07/30 02:34:45;;;;;;;3.10;1.80;;;;;;;17.83;91.11;96131.20;108370;1258;22546;-76
2023/07/30 02:37:16;;;;;;;3.00;1.70;;;;;;;17.86;91.04;96129.59;108299;1279;22612;-77
2023/07/30 02:39:47;;;;;;;3.50;1.80;;;;;;;17.86;91.00;96129.30;108326;1256;22527;-77
2023/07/30 02:42:18;;;;;;;3.80;1.50;;;;;;;17.85;90.95;96126.13;108359;1279;23887;-77
2023/07/30 02:44:49;;;;;;;2.20;1.60;;;;;;;17.84;91.02;96122.26;108335;1279;22517;-77
2023/07/30 02:47:20;;;;;;;2.60;1.50;;;;;;;17.83;90.93;96119.78;108302;1279;22538;-77
2023/07/30 02:49:51;;;;;;;2.10;1.70;;;;;;;17.82;90.93;96117.15;108361;1279;26444;-77
2023/07/30 02:52:22;;;;;;;2.80;1.80;;;;;;;17.82;90.93;96118.36;108336;1279;23032;-77
2023/07/30 02:54:53;;;;;;;2.40;2.00;;;;;;;17.80;90.76;96122.92;108335;1279;22618;-77
2023/07/30 02:57:24;;;;;;;4.70;1.80;;;;;;;17.77;90.67;96124.67;108328;1279;23295;-77
2023/07/30 02:59:55;;;;;;;2.40;1.50;;;;;;;17.74;90.59;96129.19;108359;1279;23303;-77
2023/07/30 03:02:28;;;;;;;3.10;1.80;;;;;;;17.74;90.64;96131.84;108312;1279;23213;-77
2023/07/30 03:05:00;;;;;;;2.70;1.40;;;;;;;17.75;90.63;96131.73;108361;1272;22516;-77
2023/07/30 03:07:34;;;;;;;4.20;1.70;;;;;;;17.75;90.59;96132.88;108411;1278;22613;-77
2023/07/30 03:10:06;;;;;;;2.50;1.30;;;;;;;17.75;90.53;96133.50;108315;1279;22514;-77
2023/07/30 03:12:39;;;;;;;1.90;1.50;;;;;;;17.73;90.39;96133.34;108328;1279;22707;-77
2023/07/30 03:15:11;;;;;;;3.30;1.80;;;;;;;17.73;90.44;96133.66;108311;1279;23180;-77
2023/07/30 03:17:42;;;;;;;1.70;1.40;;;;;;;17.76;90.55;96143.89;108358;1279;22513;-77
2023/07/30 03:20:13;;;;;;;1.80;1.50;;;;;;;17.78;90.41;96146.48;108332;1262;22656;-77
2023/07/30 03:22:44;;;;;;;2.10;1.50;;;;;;;17.80;90.32;96148.05;108368;1279;24219;-77
2023/07/30 03:25:15;;;;;;;3.60;1.60;;;;;;;17.84;90.26;96144.72;108297;1279;24202;-77
2023/07/30 03:27:46;;;;;;;3.10;1.40;;;;;;;17.88;90.21;96151.77;108331;1279;22985;-77
2023/07/30 03:30:18;;;;;;;1.80;1.50;;;;;;;17.92;90.09;96159.77;108344;1279;22629;-77
2023/07/30 03:32:49;;;;;;;2.20;1.60;;;;;;;17.97;89.96;96163.67;108321;1274;22685;-77
2023/07/30 03:35:20;;;;;;;3.10;1.90;;;;;;;18.03;89.97;96165.25;108311;1279;25313;-77
2023/07/30 03:37:52;;;;;;;3.10;1.60;;;;;;;18.04;89.63;96167.66;108328;1279;25790;-77
2023/07/30 03:40:23;;;;;;;2.40;1.40;;;;;;;18.02;89.44;96169.17;108324;1278;22538;-77
2023/07/30 03:42:56;;;;;;;1.70;1.40;;;;;;;17.99;89.51;96164.25;108376;1280;24879;-77
2023/07/30 03:45:30;;;;;;;2.40;1.60;;;;;;;17.97;89.62;96166.95;108343;1279;22516;-77
2023/07/30 03:48:01;;;;;;;3.10;1.80;;;;;;;17.95;89.73;96167.30;108351;1279;22518;-77
2023/07/30 03:50:32;;;;;;;2.10;1.60;;;;;;;17.95;89.75;96171.96;108341;1279;22517;-77
2023/07/30 03:53:04;;;;;;;5.20;1.50;;;;;;;17.95;89.75;96175.17;108338;1279;24219;-77
2023/07/30 03:55:35;;;;;;;1.70;1.60;;;;;;;17.96;89.80;96182.09;108306;1256;22534;-77
2023/07/30 03:58:06;;;;;;;1.70;1.50;;;;;;;17.96;89.70;96183.02;108320;1279;22531;-77
2023/07/30 04:00:37;;;;;;;2.20;1.50;;;;;;;17.98;89.80;96179.25;108303;1279;25479;-77
2023/07/30 04:03:11;;;;;;;3.00;1.50;;;;;;;18.01;89.99;96179.02;108280;1272;22613;-76
2023/07/30 04:05:42;;;;;;;2.20;1.90;;;;;;;18.00;89.89;96174.87;108336;1279;22630;-76
2023/07/30 04:08:13;;;;;;;2.30;1.60;;;;;;;17.94;89.86;96175.45;108311;1279;22515;-76
2023/07/30 04:10:44;;;;;;;1.50;1.40;;;;;;;17.86;89.94;96174.20;108309;1279;22522;-76
2023/07/30 04:13:15;;;;;;;2.10;1.90;;;;;;;17.80;90.10;96181.15;108306;1262;23018;-76
2023/07/30 04:15:48;;;;;;;2.40;1.40;;;;;;;17.80;90.42;96188.43;108303;1280;22529;-76
2023/07/30 04:18:22;;;;;;;3.00;1.80;;;;;;;17.84;90.72;96190.06;108288;1271;22538;-76
2023/07/30 04:20:57;;;;;;;4.20;1.50;;;;;;;17.86;90.87;96190.90;108444;1272;22563;-76
2023/07/30 04:23:30;;;;;;;2.00;1.50;;;;;;;17.89;91.01;96197.90;108293;1275;22559;-76
2023/07/30 04:26:01;;;;;;;3.00;1.30;;;;;;;17.90;91.13;96202.99;108244;1279;26580;-76
2023/07/30 04:28:32;;;;;;;3.40;1.60;;;;;;;17.93;91.40;96204.23;108297;1272;23766;-77
2023/07/30 04:31:03;;;;;;;2.90;1.60;;;;;;;17.96;91.41;96209.60;108298;1279;23133;-76
2023/07/30 04:33:34;;;;;;;3.00;1.90;;;;;;;17.93;91.17;96205.77;108255;1279;26577;-76
2023/07/30 04:36:06;;;;;;;4.50;1.80;;;;;;;17.90;91.19;96206.66;108288;1272;22625;-76
2023/07/30 04:38:38;;;;;;;4.70;1.80;;;;;;;17.90;91.46;96209.50;108272;1279;23021;-76
2023/07/30 04:41:09;;;;;;;3.10;1.90;;;;;;;17.93;91.66;96214.59;108311;1256;22535;-76
2023/07/30 04:43:40;;;;;;;2.50;1.60;;;;;;;17.94;91.64;96218.28;108280;1279;26464;-76
2023/07/30 04:46:11;;;;;;;3.00;1.90;;;;;;;17.98;91.95;96216.86;108166;1279;131587;-76
2023/07/30 04:48:43;;;;;;;2.00;1.70;;;;;;;18.05;92.30;96216.49;108300;1279;26465;-76
2023/07/30 04:51:14;;;;;;;2.50;2.00;;;;;;;18.16;92.62;96213.00;108284;1272;23964;-76
2023/07/30 04:53:45;;;;;;;1.60;1.50;;;;;;;18.27;92.59;96212.58;108326;1279;25336;-76
2023/07/30 04:56:17;;;;;;;2.00;1.40;;;;;;;18.35;92.32;96216.05;108319;1279;22550;-76
2023/07/30 04:58:48;;;;;;;2.70;1.70;;;;;;;18.42;92.32;96216.15;108330;1278;25419;-76
2023/07/30 05:01:19;;;;;;;1.90;1.70;;;;;;;18.51;92.48;96220.04;108270;1274;22627;-76
2023/07/30 05:03:50;;;;;;;1.80;1.70;;;;;;;18.53;92.08;96223.70;108282;1278;22548;-76
2023/07/30 05:06:21;;;;;;;2.10;1.80;;;;;;;18.53;91.90;96224.38;108276;1257;23658;-76
2023/07/30 05:08:52;;;;;;;3.50;1.70;;;;;;;18.54;91.80;96229.86;108338;1279;22516;-76
2023/07/30 05:11:24;;;;;;;3.10;1.60;;;;;;;18.54;91.67;96231.02;108285;1272;23810;-76
2023/07/30 05:13:56;;;;;;;2.20;1.70;;;;;;;18.51;91.44;96238.69;108248;1279;25985;-76
2023/07/30 05:16:30;;;;;;;2.80;1.80;;;;;;;18.46;91.27;96240.69;108270;1279;25432;-77
2023/07/30 05:19:01;;;;;;;2.10;1.90;;;;;;;18.44;91.34;96238.70;108285;1276;22520;-76
2023/07/30 05:21:32;;;;;;;3.10;1.80;;;;;;;18.44;91.48;96240.95;108263;1278;24216;-76
2023/07/30 05:24:04;;;;;;;2.80;1.60;;;;;;;18.47;91.45;96240.70;108323;1279;22598;-76
2023/07/30 05:26:35;;;;;;;2.20;1.70;;;;;;;18.51;91.47;96238.59;108251;1274;22626;-76
2023/07/30 05:29:06;;;;;;;2.20;1.70;;;;;;;18.60;91.75;96242.42;108263;1279;22569;-76
2023/07/30 05:31:38;;;;;;;2.90;2.60;;;;;;;18.67;91.51;96239.42;108279;1273;22681;-76
2023/07/30 05:34:09;;;;;;;2.70;1.70;;;;;;;18.78;91.65;96245.65;108260;1279;23926;-77
2023/07/30 05:36:40;;;;;;;2.80;1.80;;;;;;;18.87;91.65;96243.39;108312;1272;22528;-76
2023/07/30 05:39:11;;;;;;;2.30;1.70;;;;;;;18.95;91.51;96245.46;108294;1279;22523;-76
2023/07/30 05:41:42;;;;;;;2.10;1.70;;;;;;;19.04;91.56;96245.91;108280;1280;22563;-76
2023/07/30 05:44:13;;;;;;;3.70;1.50;;;;;;;19.14;91.72;96244.69;108336;1256;22516;-76
2023/07/30 05:46:44;;;;;;;2.30;2.10;;;;;;;19.26;91.38;96239.02;108259;1278;25417;-76
2023/07/30 05:49:15;;;;;;;2.70;2.20;;;;;;;19.39;91.37;96243.50;108324;1279;22548;-76
2023/07/30 05:51:48;;;;;;;3.90;2.20;;;;;;;19.55;91.35;96244.59;108313;1279;22529;-76
2023/07/30 05:54:20;;;;;;;4.10;1.90;;;;;;;19.72;90.87;96246.15;108308;1278;22521;-76
2023/07/30 05:56:51;;;;;;;2.50;2.00;;;;;;;19.90;90.58;96249.06;108301;1279;23548;-76
2023/07/30 05:59:22;;;;;;;1.80;1.40;;;;;;;20.01;90.03;96250.88;108305;1279;24249;-76
2023/07/30 06:02:03;;;;;;;4.00;1.50;;;;;;;20.11;90.01;96256.67;108290;1271;22516;-76
2023/07/30 06:04:34;;;;;;;2.50;1.70;;;;;;;20.26;89.92;96252.70;108249;1279;27006;-76
2023/07/30 06:07:05;;;;;;;4.20;1.70;;;;;;;20.37;89.42;96245.12;108262;1277;23545;-76
2023/07/30 06:09:39;;;;;;;2.80;1.80;;;;;;;20.48;89.32;96244.71;108276;1279;24219;-77
2023/07/30 06:12:11;;;;;;;2.80;1.70;;;;;;;20.60;88.24;96244.52;108311;1273;22551;-77
2023/07/30 06:14:44;;;;;;;2.20;1.80;;;;;;;20.54;87.33;96246.38;108305;1279;22933;-76
2023/07/30 06:17:16;;;;;;;2.90;1.50;;;;;;;20.42;87.12;96249.02;108266;1272;22523;-76
2023/07/30 06:19:47;;;;;;;3.60;2.00;;;;;;;20.55;87.80;96249.41;108280;1279;25593;-77
2023/07/30 06:22:18;;;;;;;1.90;1.50;;;;;;;20.71;87.44;96245.77;108290;1279;22954;-77
2023/07/30 06:24:49;;;;;;;2.50;1.70;;;;;;;21.41;88.87;96247.41;108359;1276;22529;-76
2023/07/30 06:27:20;;;;;;;2.80;1.50;;;;;;;22.48;87.95;96247.23;108275;1279;22570;-77
2023/07/30 06:29:51;;;;;;;1.90;1.40;;;;;;;23.53;86.41;96243.48;108239;1276;22531;-76
2023/07/30 06:32:25;;;;;;;5.00;1.70;;;;;;;24.17;82.58;96241.09;108302;1279;22510;-77
2023/07/30 06:35:00;;;;;;;2.20;1.30;;;;;;;24.47;80.54;96239.02;108273;1279;25648;-76
2023/07/30 06:37:34;;;;;;;2.50;1.40;;;;;;;24.55;78.21;96239.61;108266;1273;24335;-77
2023/07/30 06:40:06;;;;;;;2.00;1.70;;;;;;;24.48;76.86;96241.42;108323;1272;22517;-77
2023/07/30 06:42:40;;;;;;;1.80;1.30;;;;;;;24.49;75.86;96245.54;108394;1279;22517;-76
2023/07/30 06:45:13;;;;;;;1.70;1.20;;;;;;;24.44;74.17;96240.31;108218;1276;23015;-76
2023/07/30 06:47:44;;;;;;;3.50;1.50;;;;;;;24.32;72.72;96240.08;108309;1279;25258;-76
2023/07/30 06:50:15;;;;;;;1.60;1.10;;;;;;;23.93;71.81;96239.50;108300;1276;22994;-76
2023/07/30 06:52:47;;;;;;;1.70;1.30;;;;;;;23.68;71.18;96235.47;108314;1279;24014;-76
2023/07/30 06:55:18;;;;;;;1.90;1.30;;;;;;;23.59;71.03;96232.52;108326;1273;22995;-76
2023/07/30 06:57:50;;;;;;;2.10;1.60;;;;;;;23.47;69.57;96238.71;108258;1279;22523;-76
2023/07/30 07:00:22;;;;;;;2.80;1.50;;;;;;;23.24;69.98;96238.53;108291;1275;22520;-76
2023/07/30 07:02:53;;;;;;;2.10;1.30;;;;;;;23.08;69.83;96234.95;108317;1279;23836;-76
2023/07/30 07:05:25;;;;;;;1.70;1.50;;;;;;;22.82;70.09;96233.91;108272;1276;22878;-76
2023/07/30 07:07:59;;;;;;;1.50;1.40;;;;;;;22.66;70.21;96237.15;108291;1278;24266;-77
2023/07/30 07:10:30;;;;;;;2.20;1.40;;;;;;;22.76;70.19;96238.52;108316;1276;22543;-77
2023/07/30 07:13:03;;;;;;;3.50;1.70;;;;;;;22.85;70.12;96235.80;108273;1279;22531;-76
2023/07/30 07:15:35;;;;;;;3.50;1.40;;;;;;;23.09;69.61;96232.65;108300;1256;22517;-76
2023/07/30 07:18:06;;;;;;;1.90;1.20;;;;;;;23.04;68.85;96235.59;108284;1279;22528;-76
2023/07/30 07:20:40;;;;;;;1.80;1.30;;;;;;;22.98;69.12;96239.39;108331;1273;24221;-76
2023/07/30 07:23:12;;;;;;;1.50;1.30;;;;;;;23.13;69.36;96236.63;108253;1278;22528;-76
2023/07/30 07:25:44;;;;;;;3.50;1.40;;;;;;;23.38;69.39;96239.54;108249;1280;24179;-77
2023/07/30 07:28:16;;;;;;;1.90;1.30;;;;;;;23.52;68.99;96241.34;108278;1262;25417;-76
2023/07/30 07:30:47;;;;;;;1.90;1.70;;;;;;;23.53;68.94;96240.80;108311;1279;25409;-76
2023/07/30 07:33:19;;;;;;;2.70;1.40;;;;;;;23.40;68.11;96241.88;108306;1278;22513;-76
2023/07/30 07:35:50;;;;;;;1.80;1.40;;;;;;;23.17;67.94;96245.48;108324;1279;22546;-76
2023/07/30 07:38:21;;;;;;;1.80;1.40;;;;;;;23.00;68.21;96246.67;108261;1279;24187;-76
2023/07/30 07:40:55;;;;;;;1.80;1.40;;;;;;;23.03;68.29;96251.03;108310;1273;22535;-76
2023/07/30 07:43:32;;;;;;;1.90;1.40;;;;;;;22.92;67.96;96244.39;108296;1279;24223;-76
2023/07/30 07:46:03;;;;;;;1.60;1.10;;;;;;;23.10;68.79;96250.42;108263;1279;25415;-76
2023/07/30 07:48:35;;;;;;;1.70;1.40;;;;;;;23.46;68.31;96247.27;108277;1279;22533;-76
2023/07/30 07:51:07;;;;;;;2.80;1.40;;;;;;;23.72;68.02;96241.47;108269;1279;25298;-76
2023/07/30 07:53:38;;;;;;;2.30;1.50;;;;;;;23.81;66.97;96241.56;108271;1280;23979;-76
2023/07/30 07:56:09;;;;;;;1.80;1.40;;;;;;;24.00;67.12;96240.34;108244;1272;22516;-76
2023/07/30 07:58:42;;;;;;;1.50;1.10;;;;;;;24.14;66.82;96244.16;108319;1279;22567;-76
2023/07/30 08:01:14;;;;;;;2.10;1.50;;;;;;;24.42;66.53;96243.39;108287;1278;23841;-76
2023/07/30 08:03:45;;;;;;;1.30;1.10;;;;;;;24.64;65.58;96244.70;108268;1275;22527;-76
2023/07/30 08:06:16;;;;;;;1.20;1.10;;;;;;;24.55;64.35;96239.92;108243;1279;23872;-76
2023/07/30 08:08:50;;;;;;;1.70;1.50;;;;;;;24.32;64.39;96237.89;108339;1272;25264;-76
2023/07/30 08:11:21;;;;;;;1.20;1.10;;;;;;;24.41;64.44;96240.05;108298;1279;22858;-76
2023/07/30 08:13:52;;;;;;;1.40;1.30;;;;;;;24.54;64.56;96245.80;108286;1279;22521;-76
2023/07/30 08:16:28;;;;;;;2.30;1.30;;;;;;;24.80;64.63;96242.70;108239;1275;25265;-76
2023/07/30 08:19:01;;;;;;;2.20;1.30;;;;;;;25.13;63.95;96245.20;108279;1279;24157;-77
2023/07/30 08:21:33;;;;;;;1.50;1.20;;;;;;;24.99;63.17;96242.80;108248;1279;22677;-76
2023/07/30 08:24:04;;;;;;;2.10;1.40;;;;;;;24.62;63.21;96248.33;108040;1281;27567;-76
2023/07/30 08:26:39;;;;;;;3.10;1.30;;;;;;;24.28;63.47;96248.24;108051;1276;24222;-76
2023/07/30 08:29:13;;;;;;;1.90;1.30;;;;;;;23.92;63.29;96250.39;108173;1281;25268;-76
2023/07/30 08:31:47;;;;;;;1.50;1.10;;;;;;;23.81;63.52;96252.23;108128;1277;22518;-76
2023/07/30 08:34:19;;;;;;;1.30;1.20;;;;;;;23.45;62.85;96254.38;108176;1281;24230;-76
2023/07/30 08:36:50;;;;;;;2.00;1.30;;;;;;;23.02;63.07;96254.95;108120;1281;22565;-76
2023/07/30 08:39:22;;;;;;;2.00;1.10;;;;;;;22.84;63.72;96256.20;108154;1280;22523;-76
2023/07/30 08:41:56;;;;;;;1.40;1.30;;;;;;;22.95;64.43;96252.55;108138;1281;22553;-76
2023/07/30 08:44:28;;;;;;;1.30;1.20;;;;;;;23.18;64.73;96256.63;108150;1281;22570;-76
2023/07/30 08:46:59;;;;;;;3.20;1.30;;;;;;;23.50;64.30;96253.52;108115;1281;24037;-75
2023/07/30 08:49:34;;;;;;;1.60;1.50;;;;;;;23.41;63.78;96255.41;108137;1275;22507;-75
2023/07/30 08:52:08;;;;;;;1.20;1.10;;;;;;;23.12;63.50;96258.48;108170;1275;22604;-75
2023/07/30 08:54:42;;;;;;;2.90;1.20;;;;;;;22.97;63.51;96259.15;108123;1281;22663;-75
2023/07/30 08:57:14;;;;;;;2.00;1.40;;;;;;;22.88;63.60;96259.58;108143;1278;22522;-75
2023/07/30 08:59:50;;;;;;;1.50;1.20;;;;;;;22.82;63.39;96261.71;108134;1274;24016;-74
2023/07/30 09:02:27;;;;;;;1.40;1.30;;;;;;;22.99;63.28;96257.85;108131;1280;22574;-75
2023/07/30 09:05:03;;;;;;;2.60;1.30;;;;;;;23.27;63.43;96261.36;108132;1278;22520;-74
2023/07/30 09:07:34;;;;;;;1.80;1.60;;;;;;;23.66;63.67;96261.05;108120;1274;22532;-77
2023/07/30 09:10:07;;;;;;;1.50;1.20;;;;;;;23.97;63.24;96257.64;108151;1273;22556;-77
2023/07/30 09:12:39;;;;;;;1.60;1.50;;;;;;;23.93;62.06;96255.75;108195;1276;22568;-77
2023/07/30 09:15:11;;;;;;;2.20;1.20;;;;;;;23.76;61.75;96256.42;108157;1281;22528;-77
2023/07/30 09:17:42;;;;;;;1.30;1.20;;;;;;;23.64;61.94;96258.10;108125;1281;22525;-77
2023/07/30 09:20:14;;;;;;;2.90;1.30;;;;;;;23.48;62.07;96264.69;108174;1281;25342;-77
2023/07/30 09:22:48;;;;;;;2.00;1.20;;;;;;;23.55;62.61;96264.02;108233;1279;26683;-77
2023/07/30 09:25:22;;;;;;;2.00;1.20;;;;;;;23.79;62.90;96261.34;108349;1279;22644;-77
2023/07/30 09:27:55;;;;;;;3.80;1.30;;;;;;;23.95;62.21;96260.65;108364;1276;25244;-77
2023/07/30 09:30:33;;;;;;;1.80;1.30;;;;;;;23.93;61.35;96260.54;108393;1273;22540;-77
2023/07/30 09:33:04;;;;;;;2.10;1.10;;;;;;;24.04;61.16;96254.44;108377;1278;22512;-77
2023/07/30 09:35:38;;;;;;;1.50;1.30;;;;;;;24.02;60.74;96252.95;108370;1279;22534;-76
2023/07/30 09:38:11;;;;;;;1.30;1.20;;;;;;;23.92;60.03;96251.64;108341;1277;22544;-77
2023/07/30 09:40:45;;;;;;;1.80;1.50;;;;;;;23.72;59.33;96256.23;108371;1271;22534;-77
2023/07/30 09:43:16;;;;;;;2.40;1.10;;;;;;;23.58;59.37;96250.70;108386;1279;22541;-76
2023/07/30 09:45:51;;;;;;;1.60;1.20;;;;;;;23.67;59.84;96251.55;108318;1279;22525;-76
2023/07/30 09:48:24;;;;;;;1.30;1.20;;;;;;;23.70;59.19;96248.27;108324;1280;23904;-78
2023/07/30 09:51:02;;;;;;;1.80;1.30;;;;;;;23.75;59.67;96246.14;108327;1280;22528;-78
2023/07/30 09:53:35;;;;;;;2.40;1.40;;;;;;;23.93;60.06;96245.98;108359;1278;23808;-78
2023/07/30 09:56:08;;;;;;;1.30;1.20;;;;;;;24.14;60.22;96246.02;108353;1279;23813;-78
2023/07/30 09:58:42;;;;;;;1.50;1.30;;;;;;;24.29;60.71;96242.76;108359;1279;22660;-78
2023/07/30 10:01:13;;;;;;;1.20;1.00;;;;;;;24.41;60.02;96248.58;108322;1278;25403;-78
2023/07/30 10:03:48;;;;;;;1.90;1.30;;;;;;;24.41;59.85;96247.25;108351;1278;22541;-78
2023/07/30 10:06:23;;;;;;;2.40;1.60;;;;;;;24.47;60.79;96246.91;108351;1272;22528;-80
2023/07/30 10:09:00;;;;;;;1.20;1.10;;;;;;;24.51;61.00;96245.02;108327;1279;22537;-80
2023/07/30 10:11:32;;;;;;;2.30;1.10;;;;;;;24.33;60.07;96246.11;108387;1279;22602;-79
2023/07/30 10:14:04;;;;;;;1.40;1.20;;;;;;;24.08;59.42;96244.10;108367;1279;22524;-79
2023/07/30 10:16:36;;;;;;;1.60;1.30;;;;;;;23.78;59.84;96248.80;108333;1280;23831;-79
2023/07/30 10:19:07;;;;;;;2.00;1.30;;;;;;;23.61;59.97;96244.61;108238;1272;26374;-79
2023/07/30 10:24:33;;;;;;;1.60;1.30;;;;;;;23.72;61.91;96245.19;106169;1269;971176;-80
2023/07/30 10:27:09;;;;;;;3.40;1.60;;;;;;;23.82;62.49;96243.81;107823;1277;22485;-76
2023/07/30 10:29:42;;;;;;;1.40;1.20;;;;;;;23.92;61.98;96242.73;107855;1284;25255;-76
2023/07/30 10:32:13;;;;;;;2.50;1.30;;;;;;;24.00;61.98;96241.57;107824;1284;22576;-76
2023/07/30 10:34:48;;;;;;;1.30;1.20;;;;;;;24.06;61.67;96240.38;107750;1280;22621;-77
2023/07/30 10:37:24;;;;;;;1.70;1.40;;;;;;;24.07;61.42;96239.70;107709;1283;22547;-76
2023/07/30 10:39:55;;;;;;;1.80;1.40;;;;;;;24.16;62.27;96239.37;107787;1277;22536;-77
2023/07/30 10:42:36;;;;;;;1.90;1.30;;;;;;;24.15;61.04;96239.83;107809;1284;22624;-76
2023/07/30 10:45:10;;;;;;;2.90;1.20;;;;;;;23.98;61.01;96239.46;107824;1284;24310;-76
2023/07/30 10:47:43;;;;;;;2.70;1.90;;;;;;;24.00;61.31;96238.64;107898;1284;25345;-76
2023/07/30 10:50:17;;;;;;;1.90;1.30;;;;;;;24.11;62.07;96234.16;107810;1284;23608;-76
2023/07/30 10:52:49;;;;;;;2.30;1.60;;;;;;;24.13;61.26;96234.71;107844;1280;22711;-76
2023/07/30 10:55:20;;;;;;;1.90;1.50;;;;;;;24.12;60.99;96232.84;107818;1284;22583;-76
2023/07/30 10:57:52;;;;;;;2.30;1.50;;;;;;;23.93;60.25;96232.00;107819;1278;22528;-76
2023/07/30 11:00:23;;;;;;;2.20;1.50;;;;;;;23.83;60.28;96228.05;107816;1284;22531;-76
2023/07/30 11:02:58;;;;;;;2.20;1.40;;;;;;;23.84;60.55;96228.36;107809;1284;22671;-76
2023/07/30 11:05:30;;;;;;;1.40;1.30;;;;;;;23.96;60.70;96227.69;107853;1284;25329;-76
2023/07/30 11:08:01;;;;;;;1.60;1.20;;;;;;;24.03;60.16;96226.04;107809;1278;22743;-76
2023/07/30 11:10:33;;;;;;;1.10;1.00;;;;;;;24.00;59.33;96226.09;107819;1284;22535;-76
2023/07/30 11:13:05;;;;;;;1.70;1.40;;;;;;;23.87;59.63;96229.15;107836;1280;22587;-76
2023/07/30 11:15:41;;;;;;;1.40;1.30;;;;;;;23.94;60.94;96228.36;107842;1284;22720;-76
2023/07/30 11:18:13;;;;;;;1.60;1.40;;;;;;;24.05;61.57;96226.14;107798;1280;22531;-76
2023/07/30 11:20:45;;;;;;;1.70;1.40;;;;;;;24.11;61.41;96228.13;107777;1284;22563;-76
2023/07/30 11:23:26;;;;;;;2.70;1.60;;;;;;;24.12;60.16;96222.16;107868;1278;23064;-76
2023/07/30 11:25:57;;;;;;;2.20;1.30;;;;;;;23.94;58.97;96221.80;107837;1277;24249;-76
2023/07/30 11:28:34;;;;;;;1.80;1.20;;;;;;;23.85;59.12;96225.11;107840;1284;22545;-75
2023/07/30 11:31:09;;;;;;;1.60;1.20;;;;;;;23.78;59.37;96224.27;107891;1280;22534;-76
2023/07/30 11:33:44;;;;;;;1.40;1.30;;;;;;;23.79;60.06;96223.13;107809;1261;22534;-76
2023/07/30 11:36:18;;;;;;;2.10;1.50;;;;;;;23.84;60.81;96219.54;107851;1284;22942;-76
2023/07/30 11:38:50;;;;;;;2.30;1.60;;;;;;;23.92;60.72;96220.46;107806;1280;23630;-76
2023/07/30 11:41:24;;;;;;;1.60;1.50;;;;;;;23.87;59.73;96218.95;107850;1280;22637;-76
2023/07/30 11:43:56;;;;;;;2.00;1.30;;;;;;;23.82;60.00;96218.76;107838;1284;22536;-76
2023/07/30 11:46:30;;;;;;;1.60;1.40;;;;;;;23.83;60.20;96218.52;107893;1284;22532;-76
2023/07/30 11:49:16;;;;;;;1.50;1.40;;;;;;;23.76;59.40;96219.70;107824;1280;24243;-76
2023/07/30 11:51:49;;;;;;;2.30;1.70;;;;;;;23.64;59.22;96221.13;107862;1284;26472;-76